Time;durP1;ratioP1;P1;durP2;ratioP2;P2;SDS_P1;SDS_P2;PMS_P1;PMS_P2;Temp;Humidity;BMP_temperature;BMP_pressure;BME280_temperature;BME280_humidity;BME280_pressure;Samples;Min_cycle;Max_cycle;Signal;HPM_P1;HPM_P2
2024/03/31 00:01:41;;;;;;;9.38;2.80;;;17.90;84.50;;;;;;4973545;28;20038;-32
2024/03/31 00:04:07;;;;;;;8.73;2.75;;;17.80;84.40;;;;;;4973841;28;20105;-33
2024/03/31 00:06:33;;;;;;;10.43;2.70;;;17.80;84.50;;;;;;4974056;28;20471;-31
2024/03/31 00:08:58;;;;;;;7.32;2.72;;;17.80;84.50;;;;;;4975310;28;20023;-32
2024/03/31 00:11:24;;;;;;;10.07;3.05;;;17.80;84.50;;;;;;4973993;28;20025;-32
2024/03/31 00:13:50;;;;;;;7.43;2.85;;;17.80;84.60;;;;;;4973388;28;20027;-33
2024/03/31 00:16:15;;;;;;;7.90;2.67;;;17.80;84.60;;;;;;4973459;28;20497;-32
2024/03/31 00:18:41;;;;;;;6.88;2.78;;;17.80;84.60;;;;;;4973952;28;20033;-32
2024/03/31 00:21:07;;;;;;;7.63;3.08;;;17.80;84.60;;;;;;4973466;28;20027;-32
2024/03/31 00:23:32;;;;;;;8.75;2.75;;;17.80;84.60;;;;;;4975284;28;20031;-32
2024/03/31 00:25:59;;;;;;;11.48;2.80;;;17.80;84.60;;;;;;4973355;28;20478;-32
2024/03/31 00:28:25;;;;;;;8.13;2.47;;;17.80;84.70;;;;;;4973308;28;20089;-32
2024/03/31 00:30:55;;;;;;;8.13;2.63;;;17.80;84.80;;;;;;4973019;28;20118;-33
2024/03/31 00:33:22;;;;;;;7.82;2.97;;;17.80;84.70;;;;;;4974709;28;20038;-32
2024/03/31 00:35:54;;;;;;;9.48;2.67;;;17.80;84.80;;;;;;4974795;28;20038;-33
2024/03/31 00:38:20;;;;;;;5.45;2.53;;;17.80;84.80;;;;;;4973466;28;20030;-32
2024/03/31 00:40:45;;;;;;;10.45;2.88;;;17.80;84.80;;;;;;4974598;28;20030;-32
2024/03/31 00:43:13;;;;;;;7.70;2.40;;;17.80;84.90;;;;;;4974752;28;20031;-32
2024/03/31 00:45:42;;;;;;;7.50;2.72;;;17.80;84.90;;;;;;4974279;28;20034;-32
2024/03/31 00:48:08;;;;;;;9.10;2.35;;;17.80;84.90;;;;;;4974553;28;20078;-32
2024/03/31 00:50:35;;;;;;;8.60;2.55;;;17.80;85.00;;;;;;5002776;23;20043;-93
2024/03/31 00:53:00;;;;;;;9.63;2.72;;;17.70;84.90;;;;;;4983113;28;20034;-94
2024/03/31 00:55:26;;;;;;;9.20;2.67;;;17.80;85.00;;;;;;5014204;28;20016;-94
2024/03/31 00:57:52;;;;;;;9.98;3.00;;;17.70;84.90;;;;;;5016520;28;20036;-94
2024/03/31 01:00:18;;;;;;;8.90;2.60;;;17.70;85.00;;;;;;5001697;28;20015;-96
2024/03/31 01:02:44;;;;;;;6.70;2.90;;;17.80;85.10;;;;;;5001440;28;20031;-94
2024/03/31 01:05:09;;;;;;;4.63;2.50;;;17.70;85.00;;;;;;5001422;28;20007;-94
2024/03/31 01:07:36;;;;;;;6.18;2.50;;;17.70;85.00;;;;;;5001274;28;20078;-95
2024/03/31 01:10:03;;;;;;;5.90;2.38;;;17.70;85.00;;;;;;5033313;28;20027;-94
2024/03/31 01:12:31;;;;;;;7.25;2.55;;;17.70;85.10;;;;;;5034390;28;20015;-96
2024/03/31 01:14:57;;;;;;;9.30;2.72;;;17.70;85.10;;;;;;5033586;28;20023;-95
2024/03/31 01:17:24;;;;;;;5.85;2.47;;;17.70;85.00;;;;;;5001486;28;20035;-94
2024/03/31 01:19:50;;;;;;;7.28;2.97;;;17.70;85.10;;;;;;5001424;28;20038;-95
2024/03/31 01:22:16;;;;;;;7.55;2.72;;;17.70;85.10;;;;;;5001316;28;20095;-94
2024/03/31 01:24:42;;;;;;;7.50;2.50;;;17.70;85.10;;;;;;5001699;28;20055;-94
2024/03/31 01:27:07;;;;;;;5.10;2.63;;;17.70;85.20;;;;;;5001459;28;20011;-94
2024/03/31 01:29:33;;;;;;;6.55;2.28;;;17.70;85.20;;;;;;5001582;28;20018;-94
2024/03/31 01:31:59;;;;;;;7.57;2.30;;;17.70;85.20;;;;;;5000965;28;20015;-93
2024/03/31 01:34:25;;;;;;;3.38;1.98;;;17.70;85.20;;;;;;5001619;28;20102;-94
2024/03/31 01:36:51;;;;;;;6.30;2.50;;;17.70;85.20;;;;;;5002015;28;20027;-93
2024/03/31 01:39:18;;;;;;;5.75;2.40;;;17.70;85.30;;;;;;5033665;28;20007;-94
2024/03/31 01:41:48;;;;;;;7.10;2.40;;;17.70;85.30;;;;;;5001451;28;20094;-94
2024/03/31 01:44:14;;;;;;;5.05;2.10;;;17.70;85.30;;;;;;5001780;28;20031;-95
2024/03/31 01:46:40;;;;;;;7.13;2.67;;;17.70;85.30;;;;;;5001748;28;20014;-94
2024/03/31 01:49:05;;;;;;;8.50;2.30;;;17.70;85.30;;;;;;5001292;28;20022;-94
2024/03/31 01:51:31;;;;;;;6.15;2.53;;;17.70;85.40;;;;;;5000434;28;20050;-95
2024/03/31 01:53:57;;;;;;;4.07;2.25;;;17.70;85.50;;;;;;5000800;28;20083;-94
2024/03/31 01:56:22;;;;;;;8.75;2.50;;;17.70;85.40;;;;;;5000732;28;20011;-93
2024/03/31 01:58:48;;;;;;;5.32;1.95;;;17.70;85.50;;;;;;5000871;28;20015;-93
2024/03/31 02:01:14;;;;;;;7.90;2.40;;;17.70;85.50;;;;;;5011922;23;20019;-34
2024/03/31 02:03:39;;;;;;;6.53;2.30;;;17.70;86.20;;;;;;4975905;28;20092;-34
2024/03/31 02:06:09;;;;;;;6.82;2.70;;;17.70;85.50;;;;;;4975756;28;20034;-33
2024/03/31 02:08:35;;;;;;;4.97;2.80;;;17.70;85.50;;;;;;4976181;28;20031;-34
2024/03/31 02:11:01;;;;;;;5.50;1.98;;;17.70;85.50;;;;;;4975618;28;20485;-34
2024/03/31 02:13:26;;;;;;;9.85;2.45;;;17.60;85.40;;;;;;4976178;28;20038;-34
2024/03/31 02:15:53;;;;;;;4.97;2.35;;;17.70;85.50;;;;;;4976639;28;20031;-34
2024/03/31 02:18:18;;;;;;;8.20;2.42;;;17.60;85.50;;;;;;4977419;28;20034;-34
2024/03/31 02:20:44;;;;;;;6.53;2.38;;;17.70;85.70;;;;;;4978271;28;20023;-34
2024/03/31 02:23:10;;;;;;;6.43;1.88;;;17.70;85.70;;;;;;4980201;28;20478;-34
2024/03/31 02:25:36;;;;;;;6.65;2.22;;;17.60;85.60;;;;;;5000112;28;20018;-34
2024/03/31 02:28:02;;;;;;;9.00;2.17;;;17.60;85.60;;;;;;5000091;28;20031;-34
2024/03/31 02:30:28;;;;;;;6.25;2.15;;;17.60;85.60;;;;;;5000044;28;20030;-34
2024/03/31 02:32:53;;;;;;;4.03;1.90;;;17.60;85.60;;;;;;4981715;28;20498;-34
2024/03/31 02:35:19;;;;;;;6.07;2.10;;;17.70;85.70;;;;;;4976608;28;20031;-34
2024/03/31 02:37:46;;;;;;;5.93;1.98;;;17.60;85.70;;;;;;4976848;28;20035;-34
2024/03/31 02:40:12;;;;;;;5.22;1.95;;;17.60;85.70;;;;;;4987562;28;20027;-33
2024/03/31 02:42:37;;;;;;;6.30;2.15;;;17.60;85.70;;;;;;4976432;28;20096;-33
2024/03/31 02:45:03;;;;;;;7.90;2.20;;;17.60;85.70;;;;;;4976556;28;20026;-33
2024/03/31 02:47:29;;;;;;;6.65;2.35;;;17.60;85.80;;;;;;4975912;28;20430;-33
2024/03/31 02:49:55;;;;;;;7.30;2.30;;;17.60;85.70;;;;;;4976514;28;20027;-33
2024/03/31 02:52:20;;;;;;;4.25;1.85;;;17.60;85.80;;;;;;4975814;28;20390;-34
2024/03/31 02:54:46;;;;;;;7.78;2.25;;;17.60;85.80;;;;;;4975788;28;20493;-34
2024/03/31 02:57:12;;;;;;;7.15;2.10;;;17.60;85.80;;;;;;4976026;28;20135;-33
2024/03/31 02:59:37;;;;;;;5.53;1.75;;;17.60;86.50;;;;;;4975722;28;20078;-33
2024/03/31 03:02:03;;;;;;;5.82;1.98;;;17.60;85.80;;;;;;4975628;28;20039;-34
2024/03/31 03:04:29;;;;;;;7.10;2.15;;;17.60;85.80;;;;;;4975752;28;20469;-33
2024/03/31 03:06:55;;;;;;;7.65;1.90;;;17.60;85.80;;;;;;4975625;28;20058;-34
2024/03/31 03:09:22;;;;;;;5.68;1.75;;;17.60;85.80;;;;;;4975399;28;20022;-34
2024/03/31 03:11:47;;;;;;;3.67;1.50;;;17.60;85.90;;;;;;4973695;28;20035;-32
2024/03/31 03:14:13;;;;;;;8.63;2.10;;;17.60;85.90;;;;;;4975588;28;20031;-33
2024/03/31 03:16:39;;;;;;;7.13;2.17;;;17.60;85.80;;;;;;4975216;28;20031;-33
2024/03/31 03:19:04;;;;;;;7.20;2.42;;;17.60;85.80;;;;;;4975482;28;20038;-33
2024/03/31 03:21:30;;;;;;;8.75;2.28;;;17.60;85.80;;;;;;4975154;28;20023;-33
2024/03/31 03:23:56;;;;;;;4.72;2.03;;;17.60;85.90;;;;;;4975189;28;20030;-33
2024/03/31 03:26:21;;;;;;;7.70;1.73;;;17.50;85.80;;;;;;4975381;28;20023;-34
2024/03/31 03:28:47;;;;;;;5.30;1.77;;;17.60;85.90;;;;;;4975038;28;20418;-33
2024/03/31 03:31:13;;;;;;;7.60;1.73;;;17.60;85.90;;;;;;4974780;28;20019;-34
2024/03/31 03:33:38;;;;;;;5.38;1.83;;;17.60;85.90;;;;;;4975130;28;20450;-34
2024/03/31 03:36:05;;;;;;;8.18;2.10;;;17.60;85.90;;;;;;4974971;28;20058;-34
2024/03/31 03:38:31;;;;;;;7.43;2.17;;;17.50;85.80;;;;;;4974624;28;20102;-34
2024/03/31 03:40:58;;;;;;;4.60;1.80;;;17.50;85.80;;;;;;4973974;28;20034;-33
2024/03/31 03:43:25;;;;;;;5.55;2.08;;;17.50;85.80;;;;;;4974604;28;20038;-33
2024/03/31 03:45:51;;;;;;;7.00;1.92;;;17.50;85.80;;;;;;4974875;28;20078;-33
2024/03/31 03:48:17;;;;;;;8.25;2.08;;;17.50;85.80;;;;;;4974765;28;20027;-32
2024/03/31 03:50:43;;;;;;;5.80;1.85;;;17.50;85.90;;;;;;4974843;28;20513;-33
2024/03/31 03:53:08;;;;;;;7.35;2.15;;;17.50;85.80;;;;;;4974709;28;20078;-33
2024/03/31 03:55:34;;;;;;;6.55;1.85;;;17.50;85.80;;;;;;4974834;28;20482;-33
2024/03/31 03:57:59;;;;;;;7.50;1.90;;;17.50;85.90;;;;;;4957328;28;20038;-33
2024/03/31 04:00:25;;;;;;;3.55;1.50;;;17.50;85.90;;;;;;4974571;28;20034;-33
2024/03/31 04:02:51;;;;;;;8.15;1.85;;;17.50;85.90;;;;;;4974305;28;20031;-34
2024/03/31 04:05:16;;;;;;;5.50;1.60;;;17.50;85.90;;;;;;4974642;28;20027;-34
2024/03/31 04:07:42;;;;;;;3.25;1.40;;;17.50;85.90;;;;;;4974366;28;20497;-33
2024/03/31 04:10:08;;;;;;;5.13;1.67;;;17.50;85.90;;;;;;4973508;28;20155;-33
2024/03/31 04:12:33;;;;;;;7.47;1.58;;;17.50;85.80;;;;;;4974486;28;20398;-34
2024/03/31 04:15:00;;;;;;;4.72;1.67;;;17.50;85.80;;;;;;4974469;28;20031;-33
2024/03/31 04:17:26;;;;;;;5.95;1.60;;;17.50;85.80;;;;;;4957177;28;20031;-33
2024/03/31 04:19:51;;;;;;;5.28;1.80;;;17.50;85.90;;;;;;4974207;28;20034;-34
2024/03/31 04:22:17;;;;;;;6.97;1.67;;;17.50;85.90;;;;;;4974062;28;20082;-34
2024/03/31 04:24:43;;;;;;;5.35;1.80;;;17.50;85.90;;;;;;4974444;28;20054;-34
2024/03/31 04:27:08;;;;;;;6.35;1.60;;;17.50;85.90;;;;;;4974203;28;20400;-33
2024/03/31 04:29:34;;;;;;;5.65;1.90;;;17.50;85.80;;;;;;4974086;28;20023;-33
2024/03/31 04:31:59;;;;;;;7.30;2.03;;;17.50;85.90;;;;;;4974439;28;20061;-34
2024/03/31 04:34:28;;;;;;;5.15;1.42;;;17.50;85.90;;;;;;4974301;28;20034;-33
2024/03/31 04:36:56;;;;;;;6.80;1.80;;;17.50;85.90;;;;;;4973303;28;20038;-34
2024/03/31 04:39:23;;;;;;;4.90;1.67;;;17.50;85.90;;;;;;4974043;28;20097;-33
2024/03/31 04:41:51;;;;;;;5.07;1.90;;;17.50;85.80;;;;;;4974241;28;20109;-33
2024/03/31 04:44:17;;;;;;;9.95;1.98;;;17.50;85.80;;;;;;4974520;28;20019;-33
2024/03/31 04:46:44;;;;;;;4.20;1.50;;;17.40;85.80;;;;;;4974279;28;20027;-34
2024/03/31 04:49:09;;;;;;;5.85;1.73;;;17.50;85.80;;;;;;4974116;28;20019;-33
2024/03/31 04:51:35;;;;;;;5.80;1.77;;;17.50;85.80;;;;;;4974069;28;20027;-33
2024/03/31 04:54:02;;;;;;;5.18;1.73;;;17.50;85.90;;;;;;4974218;28;20034;-33
2024/03/31 04:56:28;;;;;;;5.10;1.83;;;17.50;85.80;;;;;;4974245;28;20030;-33
2024/03/31 04:58:54;;;;;;;7.15;1.70;;;17.50;85.80;;;;;;4974073;28;20035;-34
2024/03/31 05:01:19;;;;;;;6.50;1.80;;;17.50;85.80;;;;;;4974019;28;20042;-34
2024/03/31 05:03:45;;;;;;;5.53;1.80;;;17.50;85.80;;;;;;4974059;28;20027;-33
2024/03/31 05:06:10;;;;;;;5.80;1.60;;;17.40;85.70;;;;;;4956575;28;20074;-34
2024/03/31 05:08:36;;;;;;;5.95;1.70;;;17.40;85.70;;;;;;4972900;28;20393;-34
2024/03/31 05:11:02;;;;;;;6.72;2.00;;;17.50;85.70;;;;;;4956860;28;20100;-34
2024/03/31 05:13:28;;;;;;;7.30;1.85;;;17.40;85.70;;;;;;4974893;28;20033;-33
2024/03/31 05:16:01;;;;;;;3.72;1.52;;;17.40;85.70;;;;;;4974270;28;20023;-34
2024/03/31 05:18:26;;;;;;;6.65;1.80;;;17.50;85.70;;;;;;4973841;28;20034;-33
2024/03/31 05:21:03;;;;;;;4.10;1.63;;;17.50;85.70;;;;;;4973717;28;20030;-34
2024/03/31 05:23:29;;;;;;;6.78;1.63;;;17.50;85.70;;;;;;4974035;28;20390;-34
2024/03/31 05:25:55;;;;;;;6.25;1.70;;;17.40;85.70;;;;;;4973750;28;20385;-33
2024/03/31 05:28:22;;;;;;;4.90;1.45;;;17.40;85.60;;;;;;4973946;28;20058;-33
2024/03/31 05:30:48;;;;;;;5.35;1.77;;;17.40;85.60;;;;;;4973658;28;20030;-34
2024/03/31 05:33:14;;;;;;;6.25;1.70;;;17.40;85.70;;;;;;4973852;28;20027;-33
2024/03/31 05:35:40;;;;;;;4.28;1.30;;;17.40;85.70;;;;;;4975681;28;20050;-33
2024/03/31 05:38:08;;;;;;;4.95;1.75;;;17.40;85.70;;;;;;4977148;28;20027;-34
2024/03/31 05:40:39;;;;;;;3.83;1.55;;;17.40;85.70;;;;;;4976646;28;20031;-33
2024/03/31 05:43:05;;;;;;;5.03;1.50;;;17.40;85.70;;;;;;4976063;28;20478;-34
2024/03/31 05:45:34;;;;;;;3.75;1.65;;;17.40;85.70;;;;;;4976920;28;20089;-34
2024/03/31 05:48:06;;;;;;;8.05;2.00;;;17.40;85.70;;;;;;4977263;28;20035;-34
2024/03/31 05:50:34;;;;;;;6.73;1.70;;;17.40;85.70;;;;;;4960047;28;20058;-33
2024/03/31 05:52:59;;;;;;;4.45;1.77;;;17.40;85.60;;;;;;4977064;28;20077;-34
2024/03/31 05:55:25;;;;;;;6.40;1.70;;;17.40;85.60;;;;;;4977672;28;20023;-34
2024/03/31 05:57:51;;;;;;;4.80;1.90;;;17.40;85.60;;;;;;4976876;28;20022;-34
2024/03/31 06:00:17;;;;;;;3.28;1.42;;;17.40;85.60;;;;;;4976779;28;20031;-34
2024/03/31 06:02:42;;;;;;;5.35;1.60;;;17.40;85.60;;;;;;4976983;28;20530;-34
2024/03/31 06:05:08;;;;;;;5.78;1.70;;;17.40;85.60;;;;;;4977210;28;20054;-34
2024/03/31 06:07:34;;;;;;;5.60;1.52;;;17.40;85.60;;;;;;4977273;28;20402;-34
2024/03/31 06:09:59;;;;;;;7.35;1.55;;;17.40;85.60;;;;;;4977692;28;20026;-33
2024/03/31 06:12:26;;;;;;;4.50;1.63;;;17.40;85.60;;;;;;4976439;28;20035;-34
2024/03/31 06:14:51;;;;;;;7.68;1.63;;;17.40;85.60;;;;;;4976726;28;20034;-34
2024/03/31 06:17:20;;;;;;;4.13;1.40;;;17.40;85.60;;;;;;4977441;28;20394;-34
2024/03/31 06:19:46;;;;;;;5.75;1.70;;;17.40;85.60;;;;;;4977675;28;20035;-34
2024/03/31 06:22:12;;;;;;;6.03;1.77;;;17.40;85.60;;;;;;4976826;28;20116;-34
2024/03/31 06:24:38;;;;;;;4.75;1.42;;;17.40;85.50;;;;;;4976963;28;20059;-34
2024/03/31 06:27:04;;;;;;;3.40;1.52;;;17.40;85.60;;;;;;4977141;28;20035;-34
2024/03/31 06:29:29;;;;;;;7.00;1.77;;;17.40;85.60;;;;;;4976564;28;20030;-33
2024/03/31 06:31:55;;;;;;;6.43;2.03;;;17.40;85.60;;;;;;4976241;28;20035;-34
2024/03/31 06:34:20;;;;;;;9.43;1.85;;;17.40;85.60;;;;;;4976566;28;20466;-34
2024/03/31 06:36:47;;;;;;;4.13;1.63;;;17.40;85.60;;;;;;4976465;28;20019;-34
2024/03/31 06:39:12;;;;;;;5.50;1.70;;;17.40;85.60;;;;;;4976023;28;20363;-33
2024/03/31 06:41:38;;;;;;;9.48;1.80;;;17.40;85.60;;;;;;4975656;28;20029;-34
2024/03/31 06:44:04;;;;;;;4.78;1.80;;;17.40;85.60;;;;;;4975291;28;20026;-34
2024/03/31 06:46:29;;;;;;;6.57;1.55;;;17.40;85.60;;;;;;4975144;28;20023;-34
2024/03/31 06:48:55;;;;;;;5.22;1.40;;;17.40;85.60;;;;;;4976246;28;20085;-34
2024/03/31 06:51:21;;;;;;;6.47;1.92;;;17.40;85.60;;;;;;4975875;28;20046;-33
2024/03/31 06:53:47;;;;;;;4.95;1.60;;;17.40;85.60;;;;;;4976545;28;20118;-34
2024/03/31 06:56:13;;;;;;;4.05;1.50;;;17.50;85.60;;;;;;4975810;28;20027;-34
2024/03/31 06:58:39;;;;;;;6.95;2.13;;;17.40;85.60;;;;;;4975850;28;20129;-34
2024/03/31 07:01:04;;;;;;;8.90;1.83;;;17.40;85.60;;;;;;4975693;28;20038;-34
2024/03/31 07:03:30;;;;;;;6.25;1.70;;;17.40;85.60;;;;;;4975690;28;20027;-34
2024/03/31 07:05:55;;;;;;;5.05;1.60;;;17.40;85.60;;;;;;4975756;28;20034;-34
2024/03/31 07:08:23;;;;;;;6.70;1.80;;;17.50;85.60;;;;;;4958627;28;20323;-34
2024/03/31 07:10:48;;;;;;;4.63;1.67;;;17.50;85.60;;;;;;4975518;28;20026;-33
2024/03/31 07:13:14;;;;;;;5.53;1.95;;;17.50;85.70;;;;;;4976008;28;20070;-34
2024/03/31 07:15:39;;;;;;;4.78;1.60;;;17.50;85.70;;;;;;4976929;28;20023;-34
2024/03/31 07:18:07;;;;;;;4.20;1.70;;;17.50;85.60;;;;;;4983571;28;20030;-34
2024/03/31 07:20:34;;;;;;;6.22;1.85;;;17.50;85.60;;;;;;4998764;28;20019;-33
2024/03/31 07:23:02;;;;;;;5.22;1.60;;;17.50;86.40;;;;;;4998973;28;20098;-34
2024/03/31 07:25:29;;;;;;;7.88;2.00;;;17.50;85.60;;;;;;4998677;28;20015;-34
2024/03/31 07:27:54;;;;;;;6.15;1.73;;;17.50;85.60;;;;;;4977316;28;20042;-33
2024/03/31 07:30:20;;;;;;;4.13;1.65;;;17.50;85.60;;;;;;4975298;28;20027;-33
2024/03/31 07:32:45;;;;;;;5.85;1.90;;;17.50;85.70;;;;;;4975391;28;20034;-34
2024/03/31 07:35:11;;;;;;;3.17;1.20;;;17.50;85.70;;;;;;4975252;28;20126;-33
2024/03/31 07:37:37;;;;;;;4.00;1.55;;;17.50;85.70;;;;;;4975327;28;20054;-34
2024/03/31 07:40:03;;;;;;;4.30;1.60;;;17.50;85.70;;;;;;4974943;28;20031;-33
2024/03/31 07:42:28;;;;;;;5.18;1.52;;;17.50;85.70;;;;;;4974063;28;20110;-34
2024/03/31 07:44:54;;;;;;;4.68;1.63;;;17.50;85.60;;;;;;4974812;28;20423;-33
2024/03/31 07:47:20;;;;;;;5.32;1.60;;;17.50;85.60;;;;;;4975340;28;20034;-34
2024/03/31 07:49:45;;;;;;;2.72;1.45;;;17.60;86.40;;;;;;4974985;28;20019;-33
2024/03/31 07:52:11;;;;;;;4.25;1.23;;;17.50;85.60;;;;;;4974717;28;20034;-33
2024/03/31 07:54:36;;;;;;;3.08;1.20;;;17.60;85.60;;;;;;4974954;28;20402;-34
2024/03/31 07:57:02;;;;;;;5.22;1.50;;;17.60;85.60;;;;;;4974983;28;20367;-34
2024/03/31 07:59:28;;;;;;;3.42;1.27;;;17.60;85.60;;;;;;4974473;28;20027;-33
2024/03/31 08:01:54;;;;;;;5.95;1.30;;;17.60;85.60;;;;;;4974999;28;20054;-34
2024/03/31 08:04:20;;;;;;;5.53;1.48;;;17.60;85.60;;;;;;4974975;28;20453;-33
2024/03/31 08:06:46;;;;;;;3.60;1.52;;;17.70;85.70;;;;;;4974453;28;20471;-34
2024/03/31 08:09:12;;;;;;;2.90;1.33;;;17.70;85.60;;;;;;4973797;28;20050;-34
2024/03/31 08:11:37;;;;;;;4.45;1.38;;;17.70;86.30;;;;;;4973863;28;20414;-33
2024/03/31 08:14:03;;;;;;;3.72;1.40;;;17.80;85.60;;;;;;4996832;23;20035;-33
2024/03/31 08:16:28;;;;;;;2.95;1.40;;;17.80;85.60;;;;;;4953302;29;20051;-44
2024/03/31 08:18:55;;;;;;;3.28;1.40;;;17.80;85.60;;;;;;4954205;29;20055;-41
2024/03/31 08:21:20;;;;;;;5.10;1.55;;;17.80;85.60;;;;;;4954298;29;20470;-44
2024/03/31 08:23:46;;;;;;;4.28;1.17;;;17.90;85.60;;;;;;4955310;29;20083;-44
2024/03/31 08:26:11;;;;;;;4.20;1.42;;;18.00;85.50;;;;;;4953781;28;20027;-44
2024/03/31 08:28:37;;;;;;;4.57;1.20;;;18.00;85.40;;;;;;4953923;29;20585;-43
2024/03/31 08:31:03;;;;;;;3.08;1.38;;;18.10;85.30;;;;;;4953817;29;20020;-44
2024/03/31 08:33:29;;;;;;;3.47;1.38;;;18.20;85.20;;;;;;4954459;29;20031;-44
2024/03/31 08:35:54;;;;;;;2.67;1.20;;;18.20;85.10;;;;;;4954307;28;20093;-42
2024/03/31 08:38:20;;;;;;;2.38;1.17;;;18.30;85.70;;;;;;4954087;29;20027;-43
2024/03/31 08:40:55;;;;;;;3.70;1.17;;;18.30;84.80;;;;;;4955642;29;20031;-44
2024/03/31 08:43:23;;;;;;;2.38;1.10;;;18.40;84.70;;;;;;4954487;29;20028;-44
2024/03/31 08:45:49;;;;;;;3.28;0.85;;;18.50;84.60;;;;;;4953885;28;20034;-44
2024/03/31 08:48:20;;;;;;;3.60;1.33;;;18.50;84.40;;;;;;4954590;29;20023;-43
2024/03/31 08:50:48;;;;;;;2.47;1.00;;;18.60;84.30;;;;;;4954112;29;20505;-42
2024/03/31 08:53:14;;;;;;;4.47;1.45;;;18.70;84.20;;;;;;4953822;29;20058;-44
2024/03/31 08:55:40;;;;;;;7.30;1.30;;;18.80;84.00;;;;;;4953523;28;20035;-43
2024/03/31 08:58:07;;;;;;;4.82;1.23;;;18.80;83.80;;;;;;4954285;29;20034;-44
2024/03/31 09:00:36;;;;;;;4.47;1.42;;;18.90;83.60;;;;;;4954024;29;20114;-44
2024/03/31 09:03:04;;;;;;;3.53;1.15;;;19.00;83.40;;;;;;4953771;29;20434;-40
2024/03/31 09:05:31;;;;;;;4.60;1.30;;;19.00;83.20;;;;;;4953679;28;20463;-44
2024/03/31 09:07:57;;;;;;;3.15;1.30;;;19.10;83.10;;;;;;4953888;29;20498;-42
2024/03/31 09:10:23;;;;;;;3.17;1.13;;;19.10;82.90;;;;;;4955030;28;20027;-44
2024/03/31 09:12:49;;;;;;;6.75;1.40;;;19.20;82.80;;;;;;4957212;29;20126;-43
2024/03/31 09:15:15;;;;;;;11.43;2.30;;;19.20;82.90;;;;;;4957117;28;20110;-43
2024/03/31 09:17:41;;;;;;;8.23;1.88;;;19.20;83.50;;;;;;4957864;28;20027;-43
2024/03/31 09:20:07;;;;;;;10.73;1.83;;;19.30;83.90;;;;;;4957432;28;20064;-44
2024/03/31 09:22:33;;;;;;;14.90;2.25;;;19.40;84.00;;;;;;4956970;28;20121;-44
2024/03/31 09:24:59;;;;;;;16.52;2.50;;;19.50;83.90;;;;;;4958191;28;20487;-42
2024/03/31 09:27:25;;;;;;;12.43;2.03;;;19.60;83.80;;;;;;4957519;28;20035;-44
2024/03/31 09:29:51;;;;;;;11.02;2.05;;;19.70;83.60;;;;;;4957896;28;20026;-42
2024/03/31 09:32:17;;;;;;;7.78;1.77;;;19.70;83.40;;;;;;4957130;28;20027;-41
2024/03/31 09:34:48;;;;;;;9.60;1.80;;;19.80;83.30;;;;;;4957396;28;20468;-39
2024/03/31 09:37:14;;;;;;;10.75;1.90;;;19.90;83.10;;;;;;4957605;28;20027;-42
2024/03/31 09:39:40;;;;;;;10.27;1.88;;;20.00;82.90;;;;;;4957243;28;20431;-44
2024/03/31 09:42:07;;;;;;;12.57;1.95;;;20.00;82.60;;;;;;4956643;28;20553;-43
2024/03/31 09:44:35;;;;;;;13.98;1.83;;;20.00;82.70;;;;;;4956618;28;20027;-43
2024/03/31 09:47:02;;;;;;;18.45;2.63;;;20.00;83.20;;;;;;4956635;28;20031;-43
2024/03/31 09:49:30;;;;;;;17.90;2.92;;;20.00;83.30;;;;;;4956564;28;20028;-44
2024/03/31 09:51:59;;;;;;;14.50;2.17;;;20.00;83.50;;;;;;4956423;28;20027;-42
2024/03/31 09:54:43;;;;;;;19.92;2.75;;;20.10;83.50;;;;;;4956962;28;20112;-37
2024/03/31 09:57:13;;;;;;;17.45;2.47;;;20.30;83.00;;;;;;4956997;28;20090;-40
2024/03/31 09:59:41;;;;;;;17.48;2.28;;;20.50;82.50;;;;;;4956819;28;20038;-43
2024/03/31 10:02:13;;;;;;;12.10;2.08;;;20.60;82.00;;;;;;4956474;29;20398;-44
2024/03/31 10:04:55;;;;;;;15.50;2.53;;;20.70;81.70;;;;;;4956215;28;20079;-40
2024/03/31 10:07:21;;;;;;;12.95;2.28;;;20.80;81.30;;;;;;4956504;28;20442;-44
2024/03/31 10:09:48;;;;;;;9.90;1.88;;;20.80;81.00;;;;;;4956496;28;20054;-41
2024/03/31 10:12:14;;;;;;;13.48;1.98;;;20.90;80.90;;;;;;4956474;28;20082;-39
2024/03/31 10:14:42;;;;;;;11.07;2.42;;;21.00;80.70;;;;;;4956432;28;20030;-44
2024/03/31 10:17:09;;;;;;;10.05;2.13;;;21.00;80.40;;;;;;4956350;28;20530;-43
2024/03/31 10:19:36;;;;;;;14.02;2.25;;;21.10;80.30;;;;;;4956392;28;20036;-44
2024/03/31 10:22:02;;;;;;;13.05;2.83;;;21.20;80.10;;;;;;4955956;28;20119;-37
2024/03/31 10:24:30;;;;;;;13.30;2.28;;;21.20;79.80;;;;;;4955896;28;20482;-38
2024/03/31 10:26:56;;;;;;;11.93;1.90;;;21.30;79.70;;;;;;4956318;28;20020;-43
2024/03/31 10:29:21;;;;;;;13.13;2.25;;;21.30;79.40;;;;;;4956207;28;20054;-42
2024/03/31 10:31:47;;;;;;;12.32;2.13;;;21.40;79.30;;;;;;4947040;28;20053;-44
2024/03/31 10:34:13;;;;;;;10.43;1.80;;;21.50;79.20;;;;;;4994684;28;20080;-43
2024/03/31 10:36:42;;;;;;;9.35;1.65;;;21.50;79.00;;;;;;4994509;28;20040;-44
2024/03/31 10:39:09;;;;;;;12.10;2.03;;;21.50;78.80;;;;;;4994537;28;20433;-44
2024/03/31 10:41:35;;;;;;;6.75;1.58;;;21.60;78.70;;;;;;4994502;28;20026;-42
2024/03/31 10:44:01;;;;;;;10.13;1.83;;;21.60;78.60;;;;;;4994228;28;20062;-43
2024/03/31 10:46:28;;;;;;;10.05;1.83;;;21.70;78.50;;;;;;4994379;28;20105;-43
2024/03/31 10:49:00;;;;;;;13.35;2.05;;;21.70;78.30;;;;;;4994707;28;20022;-43
2024/03/31 10:51:27;;;;;;;7.32;1.77;;;21.70;78.10;;;;;;4994095;28;20046;-43
2024/03/31 10:53:52;;;;;;;8.00;1.90;;;21.80;78.00;;;;;;4994209;28;20034;-43
2024/03/31 10:56:28;;;;;;;5.80;1.70;;;21.90;77.90;;;;;;4994185;28;20031;-43
2024/03/31 10:59:07;;;;;;;8.30;1.80;;;21.90;77.70;;;;;;4994174;28;20033;-43
2024/03/31 11:01:37;;;;;;;8.40;1.73;;;21.90;77.50;;;;;;4994041;28;20034;-44
2024/03/31 11:04:19;;;;;;;9.02;1.90;;;21.90;77.40;;;;;;4993859;28;20164;-44
2024/03/31 11:06:46;;;;;;;10.00;1.70;;;22.00;77.30;;;;;;4993927;28;20034;-44
2024/03/31 11:09:12;;;;;;;8.35;1.75;;;22.00;77.10;;;;;;4993989;28;20381;-42
2024/03/31 11:11:38;;;;;;;10.90;2.13;;;22.00;77.10;;;;;;4993825;28;20102;-42
2024/03/31 11:14:05;;;;;;;9.02;1.80;;;22.00;76.90;;;;;;4993646;28;20033;-43
2024/03/31 11:16:32;;;;;;;4.63;1.55;;;22.10;76.80;;;;;;4993790;28;20393;-43
2024/03/31 11:18:58;;;;;;;8.35;1.80;;;22.10;76.70;;;;;;4993695;28;20030;-43
2024/03/31 11:21:33;;;;;;;8.05;2.10;;;22.10;76.50;;;;;;4993616;28;20037;-39
2024/03/31 11:24:01;;;;;;;6.57;1.45;;;22.20;76.40;;;;;;4993558;28;20498;-43
2024/03/31 11:26:27;;;;;;;8.13;1.77;;;22.20;76.40;;;;;;4993770;28;20093;-43
2024/03/31 11:28:54;;;;;;;8.98;1.75;;;22.20;76.20;;;;;;4993455;28;20057;-37
2024/03/31 11:31:21;;;;;;;7.05;1.73;;;22.20;76.20;;;;;;4993534;28;20041;-44
2024/03/31 11:33:47;;;;;;;6.95;1.40;;;22.20;76.20;;;;;;4993135;28;20462;-43
2024/03/31 11:36:15;;;;;;;6.65;1.70;;;22.10;76.90;;;;;;4993278;28;20026;-43
2024/03/31 11:38:41;;;;;;;4.28;1.17;;;22.20;76.20;;;;;;4994100;28;20030;-42
2024/03/31 11:41:07;;;;;;;4.47;1.30;;;22.20;76.20;;;;;;4993342;28;20052;-44
2024/03/31 11:43:32;;;;;;;7.10;1.42;;;22.20;76.20;;;;;;4993397;28;20030;-38
2024/03/31 11:45:58;;;;;;;5.50;1.55;;;22.20;76.20;;;;;;4993214;28;20393;-44
2024/03/31 11:48:27;;;;;;;7.50;1.10;;;22.20;76.20;;;;;;4993730;28;20064;-41
2024/03/31 11:50:53;;;;;;;4.00;1.13;;;22.20;76.10;;;;;;4993175;28;20073;-42
2024/03/31 11:53:19;;;;;;;5.78;1.40;;;22.20;76.80;;;;;;4993124;28;20030;-44
2024/03/31 11:55:45;;;;;;;5.20;1.60;;;22.20;76.00;;;;;;4993061;28;20050;-44
2024/03/31 11:58:11;;;;;;;7.43;1.65;;;22.30;76.00;;;;;;4993011;28;20030;-44
2024/03/31 12:00:36;;;;;;;7.25;1.38;;;22.30;75.90;;;;;;4993027;28;20500;-43
2024/03/31 12:03:06;;;;;;;6.57;1.60;;;22.30;75.90;;;;;;4992874;28;20054;-39
2024/03/31 12:05:33;;;;;;;6.85;1.63;;;22.30;75.80;;;;;;4992749;28;20421;-44
2024/03/31 12:07:58;;;;;;;5.10;1.35;;;22.30;75.80;;;;;;4992811;28;20497;-43
2024/03/31 12:10:25;;;;;;;3.50;1.00;;;22.30;75.70;;;;;;4992787;28;20027;-39
2024/03/31 12:12:51;;;;;;;6.90;1.60;;;22.30;75.70;;;;;;4992738;28;20037;-43
2024/03/31 12:15:19;;;;;;;5.68;1.40;;;22.30;75.60;;;;;;4992562;28;20113;-44
2024/03/31 12:17:45;;;;;;;5.70;1.20;;;22.30;75.60;;;;;;4992771;28;20085;-41
2024/03/31 12:20:10;;;;;;;7.80;1.70;;;22.30;75.50;;;;;;4992728;28;20417;-44
2024/03/31 12:22:42;;;;;;;7.70;1.70;;;22.30;75.50;;;;;;4992721;28;20062;-43
2024/03/31 12:25:09;;;;;;;5.05;1.38;;;22.30;75.50;;;;;;4992577;28;20537;-44
2024/03/31 12:27:35;;;;;;;6.85;1.35;;;22.30;75.50;;;;;;4992648;28;20030;-43
2024/03/31 12:30:03;;;;;;;5.13;1.20;;;22.40;75.40;;;;;;4992708;28;20694;-44
2024/03/31 12:32:30;;;;;;;7.55;1.27;;;22.30;75.40;;;;;;4992588;28;20026;-39
2024/03/31 12:34:56;;;;;;;9.07;1.50;;;22.30;75.40;;;;;;4992443;28;20041;-41
2024/03/31 12:37:22;;;;;;;9.68;1.38;;;22.30;75.50;;;;;;4992613;28;20030;-37
2024/03/31 12:39:48;;;;;;;7.20;1.33;;;22.30;75.40;;;;;;4992381;28;20030;-44
2024/03/31 12:42:15;;;;;;;4.82;1.40;;;22.20;75.40;;;;;;4992628;28;20072;-44